Time;durP1;ratioP1;P1;durP2;ratioP2;P2;SDS_P1;SDS_P2;PMS_P1;PMS_P2;Temp;Humidity;BMP_temperature;BMP_pressure;BME280_temperature;BME280_humidity;BME280_pressure;Samples;Min_cycle;Max_cycle;Signal;HPM_P1;HPM_P2
2023/03/05 00:01:34;;;;;;;9.35;1.98;;;;;;;-148.88;90.39;76959.56;5077964;28;20031;-83
2023/03/05 00:04:00;;;;;;;13.27;2.17;;;;;;;-148.88;90.85;76965.66;5095891;28;20038;-82
2023/03/05 00:06:28;;;;;;;8.73;1.73;;;;;;;-148.88;92.08;77000.19;5078184;28;20405;-83
2023/03/05 00:08:55;;;;;;;9.60;1.83;;;;;;;-148.88;90.45;76957.53;5096033;28;20024;-83
2023/03/05 00:11:21;;;;;;;12.10;2.30;;;;;;;-148.88;90.34;76947.38;5077792;28;20158;-81
2023/03/05 00:13:46;;;;;;;18.42;2.55;;;;;;;-148.88;92.12;76969.72;5077546;28;20120;-82
2023/03/05 00:16:14;;;;;;;10.00;1.63;;;;;;;-148.88;92.31;76988.00;5077473;28;20031;-83
2023/03/05 00:18:40;;;;;;;8.65;2.03;;;;;;;-148.88;92.82;76998.16;5096062;28;20027;-82
2023/03/05 00:21:17;;;;;;;9.98;2.28;;;;;;;-148.88;92.47;76973.78;5095641;28;20039;-83
2023/03/05 00:23:42;;;;;;;11.77;2.17;;;;;;;-148.88;92.12;76957.53;5077625;28;20020;-82
2023/03/05 00:26:07;;;;;;;11.13;2.50;;;;;;;-148.88;93.02;76992.06;5077724;28;20024;-83
2023/03/05 00:28:33;;;;;;;9.48;1.75;;;;;;;-148.88;92.73;77000.19;5077365;28;20028;-83
2023/03/05 00:31:00;;;;;;;8.32;1.90;;;;;;;-148.88;91.46;76953.47;5095433;28;20036;-82
2023/03/05 00:33:25;;;;;;;12.95;2.78;;;;;;;-148.88;92.81;76971.75;5095637;28;20026;-83
2023/03/05 00:35:50;;;;;;;8.65;2.22;;;;;;;-148.88;92.82;76959.56;5095604;28;20478;-83
2023/03/05 00:38:15;;;;;;;11.73;2.40;;;;;;;-148.88;93.92;76965.66;5077035;28;20070;-82
2023/03/05 00:40:41;;;;;;;7.45;2.05;;;;;;;-148.88;92.48;76935.19;5095947;28;20016;-83
2023/03/05 00:43:06;;;;;;;9.13;1.90;;;;;;;-148.88;93.75;76953.47;5077846;28;20031;-82
2023/03/05 00:45:32;;;;;;;6.80;2.20;;;;;;;-148.88;94.89;76981.91;5095682;28;20050;-83
2023/03/05 00:47:57;;;;;;;7.72;2.60;;;;;;;-148.88;96.55;76992.06;5095183;28;20028;-83
2023/03/05 00:50:25;;;;;;;8.85;2.50;;;;;;;-148.88;95.71;76963.63;5095994;28;20031;-83
2023/03/05 00:52:51;;;;;;;9.50;2.28;;;;;;;-148.88;95.63;76963.63;5100538;28;20099;-84
2023/03/05 00:55:16;;;;;;;6.40;2.40;;;;;;;-148.88;95.55;76949.41;5107082;28;20070;-83
2023/03/05 00:57:42;;;;;;;12.68;2.22;;;;;;;-148.88;95.51;76935.19;5077174;28;20028;-83
2023/03/05 01:00:08;;;;;;;9.63;2.10;;;;;;;-148.88;95.33;76951.44;5095744;28;20012;-83
2023/03/05 01:02:33;;;;;;;13.45;2.72;;;;;;;-148.88;95.43;76920.97;5096081;28;20028;-83
2023/03/05 01:04:59;;;;;;;10.90;2.63;;;;;;;-148.88;95.43;76918.94;5077464;28;20024;-83
2023/03/05 01:07:24;;;;;;;15.05;2.42;;;;;;;-148.88;94.72;76941.28;5095640;28;20024;-82
2023/03/05 01:09:49;;;;;;;9.50;2.58;;;;;;;-148.88;96.64;76988.00;5077564;28;20120;-83
2023/03/05 01:12:15;;;;;;;9.85;2.53;;;;;;;-148.88;95.83;76949.41;5095293;28;20020;-81
2023/03/05 01:14:40;;;;;;;6.85;2.13;;;;;;;-148.88;97.07;76959.56;5076692;28;20024;-83
2023/03/05 01:17:06;;;;;;;8.13;2.78;;;;;;;-148.88;97.09;76971.75;5076935;28;20097;-83
2023/03/05 01:19:31;;;;;;;9.77;1.92;;;;;;;-148.88;97.47;76953.47;5095791;28;20020;-82
2023/03/05 01:21:58;;;;;;;9.68;1.83;;;;;;;-148.88;95.80;76908.78;5077641;28;20603;-83
2023/03/05 01:24:23;;;;;;;8.68;2.42;;;;;;;-148.88;95.26;76910.81;5078260;28;20084;-83
2023/03/05 01:26:48;;;;;;;9.93;2.90;;;;;;;-148.88;95.35;76914.88;5078512;28;20058;-83
2023/03/05 01:29:14;;;;;;;9.07;2.45;;;;;;;-148.88;95.43;76916.91;5095081;28;20020;-83
2023/03/05 01:31:39;;;;;;;6.15;2.70;;;;;;;-148.88;96.79;76947.38;5095746;28;20036;-83
2023/03/05 01:34:04;;;;;;;6.05;1.92;;;;;;;-148.88;97.04;76957.53;5095849;28;20028;-83
2023/03/05 01:36:30;;;;;;;5.00;1.73;;;;;;;-148.88;96.41;76910.81;5078307;28;20489;-82
2023/03/05 01:38:56;;;;;;;9.88;2.55;;;;;;;-148.88;95.30;76906.75;5095069;28;20516;-82
2023/03/05 01:41:21;;;;;;;12.07;3.45;;;;;;;-148.88;96.13;76939.25;5094590;28;20107;-83
2023/03/05 01:43:47;;;;;;;9.25;3.53;;;;;;;-148.88;97.57;76949.41;5076618;28;20453;-83
2023/03/05 01:46:33;;;;;;;9.85;3.47;;;;;;;-148.88;97.05;76955.50;5094562;28;20103;-83
2023/03/05 01:49:05;;;;;;;13.65;3.45;;;;;;;-148.88;97.29;76939.25;5075826;28;20036;-83
2023/03/05 01:51:37;;;;;;;13.73;4.22;;;;;;;-148.88;97.10;76931.13;5094450;28;20051;-83
2023/03/05 01:54:05;;;;;;;15.68;3.83;;;;;;;-148.88;96.76;76939.25;5094570;28;20020;-82
2023/03/05 01:56:31;;;;;;;19.50;4.68;;;;;;;-148.88;95.46;76898.63;5076546;28;20028;-82
2023/03/05 01:59:02;;;;;;;12.18;4.07;;;;;;;-148.88;95.62;76894.56;5076295;28;20081;-83
2023/03/05 02:01:30;;;;;;;8.38;3.90;;;;;;;-148.88;96.24;76941.28;5094994;28;20020;-82
2023/03/05 02:03:55;;;;;;;21.33;4.72;;;;;;;-148.88;95.25;76904.72;5094480;28;20062;-80
2023/03/05 02:06:20;;;;;;;12.65;3.95;;;;;;;-148.88;95.52;76906.75;5094765;28;20117;-81
2023/03/05 02:08:46;;;;;;;16.83;4.50;;;;;;;-148.88;95.91;76906.75;5094253;28;20106;-82
2023/03/05 02:11:11;;;;;;;14.65;4.10;;;;;;;-148.88;96.71;76941.28;5075538;28;20020;-82
2023/03/05 02:13:39;;;;;;;18.65;4.70;;;;;;;-148.88;96.30;76910.81;5076018;28;20027;-83
2023/03/05 02:16:06;;;;;;;11.05;3.50;;;;;;;-148.88;95.56;76894.56;5076089;28;20106;-83
2023/03/05 02:18:31;;;;;;;17.30;4.20;;;;;;;-148.88;94.76;76868.13;5075806;28;20105;-82
2023/03/05 02:20:56;;;;;;;15.38;4.07;;;;;;;-148.88;95.24;76890.50;5075421;28;20039;-82
2023/03/05 02:23:27;;;;;;;12.50;4.40;;;;;;;-148.88;94.32;76853.91;5093780;28;20032;-83
2023/03/05 02:25:53;;;;;;;15.90;4.82;;;;;;;-148.88;95.54;76886.41;5093862;28;20270;-82
2023/03/05 02:28:30;;;;;;;10.23;3.95;;;;;;;-148.88;94.69;76874.22;5075815;28;20020;-83
2023/03/05 02:30:56;;;;;;;14.15;4.13;;;;;;;-148.88;95.91;76878.28;5094365;28;20028;-82
2023/03/05 02:33:21;;;;;;;19.20;4.25;;;;;;;-148.88;94.65;76855.94;5076002;28;20030;-82
2023/03/05 02:35:47;;;;;;;15.25;4.45;;;;;;;-148.88;95.04;76860.00;5094258;28;20020;-83
2023/03/05 02:38:15;;;;;;;14.52;4.85;;;;;;;-148.88;95.16;76860.00;5076144;28;20028;-83
2023/03/05 02:40:40;;;;;;;13.65;4.25;;;;;;;-148.88;94.97;76857.97;5075769;28;20427;-82
2023/03/05 02:43:06;;;;;;;13.27;3.92;;;;;;;-148.88;96.01;76876.25;5094333;28;20042;-82
2023/03/05 02:45:31;;;;;;;10.23;3.50;;;;;;;-148.88;94.48;76845.78;5094170;28;20023;-82
2023/03/05 02:47:56;;;;;;;11.63;4.20;;;;;;;-148.88;94.77;76864.06;5076078;28;20429;-82
2023/03/05 02:50:22;;;;;;;17.10;4.10;;;;;;;-148.88;95.13;76857.97;5076597;28;20043;-82
2023/03/05 02:52:47;;;;;;;12.20;3.53;;;;;;;-148.88;94.55;76841.72;5075629;28;20478;-83
2023/03/05 02:55:13;;;;;;;12.40;3.58;;;;;;;-148.88;93.94;76837.66;5093697;28;20047;-83
2023/03/05 02:57:38;;;;;;;9.60;3.75;;;;;;;-148.88;95.21;76882.34;5074921;28;20035;-82
2023/03/05 03:00:05;;;;;;;12.15;3.83;;;;;;;-148.88;95.16;76843.75;5093391;28;20426;-83
2023/03/05 03:02:30;;;;;;;11.25;3.75;;;;;;;-148.88;95.40;76884.38;5093742;28;20028;-83
2023/03/05 03:04:56;;;;;;;17.58;5.55;;;;;;;-148.88;94.09;76829.53;5093830;28;20050;-82
2023/03/05 03:07:21;;;;;;;12.32;3.80;;;;;;;-148.88;93.98;76815.31;5075582;28;20020;-81
2023/03/05 03:09:46;;;;;;;10.18;3.90;;;;;;;-148.88;94.09;76819.38;5075331;28;20032;-82
2023/03/05 03:12:12;;;;;;;7.55;3.38;;;;;;;-148.88;94.70;76829.53;5094075;28;20382;-82
2023/03/05 03:14:40;;;;;;;11.50;3.63;;;;;;;-148.88;95.60;76845.78;5075670;28;20056;-82
2023/03/05 03:17:11;;;;;;;18.15;3.00;;;;;;;-148.88;95.51;76819.38;5076144;28;20024;-82
2023/03/05 03:19:37;;;;;;;10.70;3.83;;;;;;;-148.88;95.44;76833.59;5077533;28;20494;-83
2023/03/05 03:22:04;;;;;;;10.13;3.03;;;;;;;-148.88;94.70;76809.22;5079486;28;20028;-82
2023/03/05 03:24:30;;;;;;;7.82;3.58;;;;;;;-148.88;95.08;76821.41;5079273;28;20020;-82
2023/03/05 03:26:55;;;;;;;8.15;3.15;;;;;;;-148.88;97.26;76874.22;5079331;28;20027;-82
2023/03/05 03:29:21;;;;;;;10.43;3.38;;;;;;;-148.88;96.01;76827.50;5079469;28;20379;-83
2023/03/05 03:31:46;;;;;;;9.60;3.72;;;;;;;-148.88;94.99;76821.41;5078523;28;20027;-82
2023/03/05 03:34:14;;;;;;;11.65;3.40;;;;;;;-148.88;96.21;76857.97;5097022;28;20101;-82
2023/03/05 03:36:40;;;;;;;10.30;3.53;;;;;;;-148.88;95.88;76829.53;5097370;28;20031;-82
2023/03/05 03:39:05;;;;;;;10.95;3.90;;;;;;;-148.88;96.37;76857.97;5097394;28;20024;-82
2023/03/05 03:41:31;;;;;;;12.63;3.90;;;;;;;-148.88;95.89;76831.56;5078978;28;20020;-82
2023/03/05 03:43:57;;;;;;;16.30;4.53;;;;;;;-148.88;95.86;76829.53;5079331;28;20020;-82
2023/03/05 03:46:22;;;;;;;11.13;3.80;;;;;;;-148.88;96.69;76862.03;5079360;28;20020;-82
2023/03/05 03:48:50;;;;;;;9.18;3.70;;;;;;;-148.88;97.51;76866.09;5097565;28;20020;-82
2023/03/05 03:51:15;;;;;;;18.77;5.32;;;;;;;-148.88;98.03;76857.97;5079193;28;20028;-82
2023/03/05 03:53:41;;;;;;;9.02;3.95;;;;;;;-148.88;98.28;76853.91;5097393;28;20027;-82
2023/03/05 03:56:06;;;;;;;9.88;4.78;;;;;;;-148.88;98.21;76862.03;5097374;28;20119;-82
2023/03/05 03:58:32;;;;;;;10.40;4.47;;;;;;;-148.88;97.09;76847.81;5079869;28;20047;-82
2023/03/05 04:00:57;;;;;;;14.02;5.05;;;;;;;-148.88;97.58;76841.72;5078822;28;20474;-82
2023/03/05 04:03:22;;;;;;;14.70;4.45;;;;;;;-148.88;97.35;76841.72;5097310;28;20046;-82
2023/03/05 04:05:47;;;;;;;9.93;4.03;;;;;;;-148.88;97.08;76825.47;5077756;28;20054;-82
2023/03/05 04:08:13;;;;;;;12.93;3.70;;;;;;;-148.88;96.14;76811.25;5078902;28;20491;-82
2023/03/05 04:10:41;;;;;;;11.63;4.85;;;;;;;-148.88;96.74;76813.28;5100135;28;20023;-82
2023/03/05 04:13:07;;;;;;;10.63;4.40;;;;;;;-148.88;97.64;76837.66;5100060;28;20036;-83
2023/03/05 04:15:32;;;;;;;12.90;4.63;;;;;;;-148.88;96.51;76841.72;5081356;28;20030;-83
2023/03/05 04:17:58;;;;;;;11.05;4.43;;;;;;;-148.88;96.69;76825.47;5099205;28;20028;-82
2023/03/05 04:20:23;;;;;;;10.82;4.38;;;;;;;-148.88;96.11;76795.00;5081558;28;20020;-83
2023/03/05 04:22:48;;;;;;;13.00;4.93;;;;;;;-148.88;96.70;76849.84;5080584;28;20032;-83
2023/03/05 04:25:14;;;;;;;9.85;4.00;;;;;;;-148.88;95.74;76821.41;5099649;28;20535;-83
2023/03/05 04:27:39;;;;;;;9.45;3.60;;;;;;;-148.88;95.32;76801.09;5098885;28;20047;-83
2023/03/05 04:30:05;;;;;;;12.02;3.70;;;;;;;-148.88;95.51;76776.72;5080525;28;20024;-83
2023/03/05 04:32:31;;;;;;;14.70;5.30;;;;;;;-148.88;96.06;76813.28;5078937;28;20035;-82
2023/03/05 04:34:56;;;;;;;9.07;4.20;;;;;;;-148.88;96.93;76849.84;5080480;28;20118;-83
2023/03/05 04:37:22;;;;;;;9.50;4.25;;;;;;;-148.88;96.08;76805.16;5080252;28;20023;-83
2023/03/05 04:39:47;;;;;;;10.50;4.10;;;;;;;-148.88;96.05;76803.13;5077207;28;20044;-82
2023/03/05 04:42:13;;;;;;;9.50;4.78;;;;;;;-148.88;96.08;76817.34;5077304;28;20127;-83
2023/03/05 04:44:38;;;;;;;10.57;3.40;;;;;;;-148.88;96.29;76776.72;5078240;28;20020;-82
2023/03/05 04:47:04;;;;;;;14.73;4.53;;;;;;;-148.88;96.22;76784.84;5096103;28;20082;-82
2023/03/05 04:49:29;;;;;;;9.52;3.47;;;;;;;-148.88;95.30;76770.63;5141590;22;20056;-84
2023/03/05 04:51:56;;;;;;;11.50;4.00;;;;;;;-148.88;96.39;76795.00;5099323;28;20032;-85
2023/03/05 04:54:24;;;;;;;7.20;3.10;;;;;;;-148.88;95.04;76762.50;5082000;28;20020;-83
2023/03/05 04:56:49;;;;;;;13.13;3.70;;;;;;;-148.88;96.08;76797.03;5101880;28;20059;-83
2023/03/05 04:59:20;;;;;;;10.00;3.30;;;;;;;-148.88;96.11;76792.97;5101331;28;20027;-84
2023/03/05 05:01:45;;;;;;;8.27;3.83;;;;;;;-148.88;95.66;76788.91;5085911;28;20067;-84
2023/03/05 05:04:43;;;;;;;;;;;;;;;;;;;;;
2023/03/05 05:07:10;;;;;;;9.40;3.47;;;;;;;-148.88;95.16;76776.72;5118396;28;20062;-84
2023/03/05 05:09:43;;;;;;;11.27;3.72;;;;;;;-148.88;95.50;76795.00;5100058;28;20042;-85
2023/03/05 05:12:09;;;;;;;13.13;3.95;;;;;;;-148.88;95.86;76817.34;5085629;28;20027;-85
2023/03/05 05:14:40;;;;;;;11.18;3.63;;;;;;;-148.88;95.64;76795.00;5085636;28;20024;-86
2023/03/05 05:17:08;;;;;;;10.50;4.07;;;;;;;-148.88;94.59;76764.53;5087345;28;20024;-86
2023/03/05 05:19:42;;;;;;;8.75;3.30;;;;;;;-148.88;95.11;76776.72;5085648;28;20028;-85
2023/03/05 05:22:08;;;;;;;13.50;4.30;;;;;;;-148.88;94.23;76770.63;5085066;28;20051;-86
2023/03/05 05:24:38;;;;;;;8.82;3.70;;;;;;;-148.88;95.47;76809.22;5102529;28;20016;-86
2023/03/05 05:27:04;;;;;;;11.80;3.80;;;;;;;-148.88;96.29;76805.16;5085529;28;20145;-85
2023/03/05 05:29:30;;;;;;;11.48;3.63;;;;;;;-148.88;95.51;76756.41;5084813;28;20028;-85
2023/03/05 05:31:56;;;;;;;9.00;3.72;;;;;;;-148.88;96.30;76809.22;5086227;28;20028;-84
2023/03/05 05:34:24;;;;;;;12.38;3.60;;;;;;;-148.88;96.39;76780.78;5084454;28;20031;-86
2023/03/05 05:36:53;;;;;;;14.25;4.63;;;;;;;-148.88;96.17;76795.00;5084454;28;20039;-86
2023/03/05 05:39:22;;;;;;;9.60;3.67;;;;;;;-148.88;97.58;76788.91;5083004;28;20405;-86
2023/03/05 05:42:28;;;;;;;6.18;3.13;;;;;;;-148.88;95.79;76788.91;5084879;28;20107;-85
2023/03/05 05:44:54;;;;;;;13.25;4.25;;;;;;;-148.88;96.08;76784.84;5079469;28;20096;-83
2023/03/05 05:47:26;;;;;;;12.05;4.22;;;;;;;-148.88;96.09;76780.78;5078575;28;20024;-83
2023/03/05 05:49:52;;;;;;;8.57;3.25;;;;;;;-148.88;96.62;76811.25;5078547;28;20035;-83
2023/03/05 05:52:17;;;;;;;8.25;2.80;;;;;;;-148.88;96.81;76833.59;5081743;28;20024;-84
2023/03/05 05:54:42;;;;;;;6.40;2.50;;;;;;;-148.88;99.09;76851.88;5080941;28;20052;-84
2023/03/05 05:57:11;;;;;;;7.78;2.35;;;;;;;-148.88;97.40;76795.00;5099031;28;20024;-85
2023/03/05 05:59:37;;;;;;;7.93;3.28;;;;;;;-148.88;96.76;76788.91;5083398;28;20069;-85
2023/03/05 06:02:07;;;;;;;9.88;3.22;;;;;;;-148.88;96.39;76780.78;5083160;28;20119;-82
2023/03/05 06:04:34;;;;;;;11.52;3.33;;;;;;;-148.88;97.29;76801.09;5084022;28;20359;-82
2023/03/05 06:07:00;;;;;;;12.20;2.67;;;;;;;-148.88;97.02;76784.84;5082102;28;20024;-85
2023/03/05 06:09:26;;;;;;;7.25;2.42;;;;;;;-148.88;96.41;76772.66;5082032;28;20031;-87
2023/03/05 06:11:51;;;;;;;8.82;2.70;;;;;;;-148.88;96.21;76768.59;5100548;28;20034;-84
2023/03/05 06:14:17;;;;;;;7.97;2.97;;;;;;;-148.88;96.71;76784.84;5081102;28;20028;-84
2023/03/05 06:16:42;;;;;;;8.32;2.83;;;;;;;-148.88;97.12;76782.81;5082085;28;20386;-86
2023/03/05 06:19:11;;;;;;;5.68;2.63;;;;;;;-148.88;96.26;76768.59;5100141;28;20024;-84
2023/03/05 06:21:41;;;;;;;7.38;2.30;;;;;;;-148.88;97.30;76776.72;5078206;28;20016;-85
2023/03/05 06:24:07;;;;;;;7.13;2.00;;;;;;;-148.88;97.58;76784.84;5082396;28;20054;-85
2023/03/05 06:26:48;;;;;;;6.68;2.70;;;;;;;-148.88;96.88;76788.91;5083762;28;20087;-85
2023/03/05 06:29:19;;;;;;;5.78;2.40;;;;;;;-148.88;98.35;76780.78;5083270;28;20073;-85
2023/03/05 06:31:45;;;;;;;8.18;3.40;;;;;;;-148.88;98.05;76792.97;5082152;28;20036;-85
2023/03/05 06:34:14;;;;;;;6.60;2.40;;;;;;;-148.88;98.53;76801.09;5099999;28;20046;-84
2023/03/05 06:36:39;;;;;;;7.70;3.15;;;;;;;-148.88;97.83;76786.88;5082772;28;20046;-84
2023/03/05 06:39:08;;;;;;;9.80;3.25;;;;;;;-148.88;98.21;76797.03;5100076;28;20391;-85
2023/03/05 06:41:33;;;;;;;7.28;2.47;;;;;;;-148.88;97.98;76774.69;5082137;28;20016;-82
2023/03/05 06:44:03;;;;;;;7.93;3.30;;;;;;;-148.88;98.41;76776.72;5099721;28;20391;-84
2023/03/05 06:46:36;;;;;;;7.43;3.25;;;;;;;-148.88;99.77;76817.34;5082480;28;20072;-85
2023/03/05 06:49:02;;;;;;;9.17;3.10;;;;;;;-148.88;100.00;76825.47;5099804;28;20023;-86
2023/03/05 06:51:33;;;;;;;10.15;4.78;;;;;;;-148.88;100.00;76817.34;5100407;28;20470;-86
2023/03/05 06:54:04;;;;;;;7.55;3.70;;;;;;;-148.88;99.40;76797.03;5078795;28;20032;-83
2023/03/05 06:56:30;;;;;;;9.32;3.83;;;;;;;-148.88;98.94;76772.66;5093912;28;20073;-84
2023/03/05 06:58:58;;;;;;;8.68;3.33;;;;;;;-148.88;100.00;76825.47;5094801;28;20031;-84
2023/03/05 07:01:24;;;;;;;12.35;4.00;;;;;;;-148.88;100.00;76801.09;5077125;28;20027;-83
2023/03/05 07:03:51;;;;;;;8.65;4.10;;;;;;;-148.88;100.00;76807.19;5079374;28;20024;-84
2023/03/05 07:06:17;;;;;;;9.20;3.70;;;;;;;-148.88;100.00;76788.91;5097839;28;20024;-84
2023/03/05 07:08:43;;;;;;;10.60;4.00;;;;;;;-148.88;100.00;76784.84;5080243;28;20140;-83
2023/03/05 07:11:14;;;;;;;12.15;4.10;;;;;;;-148.88;100.00;76799.06;5079977;28;20023;-84
2023/03/05 07:13:40;;;;;;;10.52;4.20;;;;;;;-148.88;100.00;76807.19;5081166;28;20056;-84
2023/03/05 07:16:08;;;;;;;11.88;4.05;;;;;;;-148.88;100.00;76900.66;5099748;28;20048;-84
2023/03/05 07:18:34;;;;;;;10.57;4.28;;;;;;;-148.88;100.00;76890.50;5081208;28;20048;-85
2023/03/05 07:21:04;;;;;;;12.70;4.18;;;;;;;-148.88;100.00;76874.22;5081184;28;20037;-85
2023/03/05 07:23:29;;;;;;;10.88;5.28;;;;;;;-148.88;100.00;76878.28;5099135;28;20532;-84
2023/03/05 07:25:55;;;;;;;11.93;3.97;;;;;;;-148.88;100.00;76878.28;5100193;28;20031;-84
2023/03/05 07:28:20;;;;;;;13.95;4.53;;;;;;;-148.88;100.00;76876.25;5080564;28;20035;-84
2023/03/05 07:30:54;;;;;;;10.07;3.83;;;;;;;-148.88;100.00;76815.31;5076106;28;20028;-83
2023/03/05 07:33:20;;;;;;;11.25;4.85;;;;;;;-148.88;100.00;76831.56;5096135;28;20027;-84
2023/03/05 07:35:45;;;;;;;9.43;3.92;;;;;;;-148.88;100.00;76857.97;5097131;28;20053;-84
2023/03/05 07:38:10;;;;;;;19.58;4.78;;;;;;;-148.88;100.00;76837.66;5079200;28;20516;-85
2023/03/05 07:40:35;;;;;;;11.93;3.63;;;;;;;-148.88;100.00;76870.16;5079771;28;20085;-84
2023/03/05 07:43:01;;;;;;;9.82;3.83;;;;;;;-148.88;100.00;76825.47;5080338;28;20059;-84
2023/03/05 07:45:26;;;;;;;18.52;4.43;;;;;;;-148.88;100.00;76833.59;5080133;28;20051;-84
2023/03/05 07:47:51;;;;;;;9.82;3.53;;;;;;;-148.88;100.00;76803.13;5099025;28;20052;-84
2023/03/05 07:50:17;;;;;;;8.15;3.53;;;;;;;-148.88;100.00;76784.84;5098785;28;20050;-84
2023/03/05 07:52:42;;;;;;;9.55;4.07;;;;;;;-148.88;100.00;76758.41;5079553;28;20028;-84
2023/03/05 07:55:08;;;;;;;9.65;4.00;;;;;;;-148.88;100.00;76746.22;5080852;28;20366;-83
2023/03/05 07:57:36;;;;;;;10.95;4.10;;;;;;;-148.88;100.00;76797.03;5099148;28;20136;-84
2023/03/05 08:00:03;;;;;;;13.00;3.88;;;;;;;-148.88;100.00;76788.91;5084174;28;20039;-85
2023/03/05 08:02:28;;;;;;;9.25;4.43;;;;;;;-148.88;100.00;76760.44;5097371;28;20113;-84
2023/03/05 08:04:54;;;;;;;9.82;4.00;;;;;;;-148.88;100.00;76768.59;5098969;28;20009;-85
2023/03/05 08:07:19;;;;;;;8.75;3.63;;;;;;;-148.88;100.00;76744.19;5089597;28;20051;-85
2023/03/05 08:09:44;;;;;;;13.35;4.10;;;;;;;-148.88;100.00;76744.19;5104934;28;20028;-86
2023/03/05 08:12:10;;;;;;;9.88;4.20;;;;;;;-148.88;100.00;76738.09;5085280;28;20039;-84
2023/03/05 08:14:35;;;;;;;11.23;3.85;;;;;;;-148.88;100.00;76727.94;5085919;28;20024;-85
2023/03/05 08:17:03;;;;;;;9.05;3.50;;;;;;;-148.88;100.00;76723.88;5085430;28;20020;-84
2023/03/05 08:19:28;;;;;;;12.98;4.13;;;;;;;-148.88;100.00;76703.56;5084052;28;20043;-84
2023/03/05 08:21:53;;;;;;;9.90;3.75;;;;;;;-148.88;99.77;76689.34;5083526;28;20487;-85
2023/03/05 08:24:18;;;;;;;11.10;4.03;;;;;;;-148.88;100.00;76687.31;5083928;28;20103;-83
2023/03/05 08:26:44;;;;;;;10.93;3.85;;;;;;;-148.88;99.79;76711.69;5083806;28;20067;-86
2023/03/05 08:29:10;;;;;;;9.18;3.35;;;;;;;-148.88;98.81;76687.31;5101918;28;20024;-85
2023/03/05 08:31:36;;;;;;;9.52;3.40;;;;;;;-148.88;98.49;76695.44;5102231;28;20024;-83
2023/03/05 08:34:25;;;;;;;7.50;3.28;;;;;;;-148.88;98.55;76693.41;5101780;28;20034;-85
2023/03/05 08:36:53;;;;;;;6.70;3.75;;;;;;;-148.88;98.26;76689.34;5083529;28;20126;-83
2023/03/05 08:39:19;;;;;;;9.23;2.97;;;;;;;-148.88;97.84;76687.31;5080073;28;20024;-84
2023/03/05 08:41:44;;;;;;;9.48;2.90;;;;;;;-148.88;97.49;76656.84;5097467;28;20023;-82
2023/03/05 08:44:09;;;;;;;8.40;3.00;;;;;;;-148.88;98.78;76697.47;5098368;28;20472;-84
2023/03/05 08:46:37;;;;;;;9.93;2.92;;;;;;;-148.88;98.01;76654.81;5080181;28;20020;-84
2023/03/05 08:49:02;;;;;;;10.10;3.38;;;;;;;-148.88;96.85;76630.44;5097435;28;20028;-83
2023/03/05 08:51:28;;;;;;;4.55;2.15;;;;;;;-148.88;95.13;76669.03;5080469;28;20088;-83
2023/03/05 08:53:56;;;;;;;7.95;2.53;;;;;;;-148.88;95.57;76705.59;5080600;28;20020;-82
2023/03/05 08:56:22;;;;;;;8.30;3.50;;;;;;;-148.88;95.84;76707.63;5080373;28;20031;-83
2023/03/05 08:58:47;;;;;;;5.97;2.67;;;;;;;-148.88;95.87;76671.06;5098466;28;20474;-83
2023/03/05 09:01:13;;;;;;;7.78;2.55;;;;;;;-148.88;95.90;76642.63;5080864;28;20028;-84
2023/03/05 09:03:39;;;;;;;7.88;2.95;;;;;;;-148.88;96.11;76671.06;5081227;28;20450;-83
2023/03/05 09:06:08;;;;;;;10.52;3.63;;;;;;;-148.88;95.04;76671.06;5098586;28;20024;-84
2023/03/05 09:08:34;;;;;;;12.95;3.83;;;;;;;-148.88;95.55;76675.13;5081662;28;20024;-84
2023/03/05 09:11:05;;;;;;;7.97;2.78;;;;;;;-148.88;95.26;76671.06;5080609;28;20020;-84
2023/03/05 09:13:30;;;;;;;6.03;2.40;;;;;;;-148.88;94.50;76658.88;5079115;28;20417;-84
2023/03/05 09:15:58;;;;;;;5.30;2.20;;;;;;;-148.88;93.38;76622.31;5078058;28;20092;-83
2023/03/05 09:18:24;;;;;;;7.35;2.42;;;;;;;-148.88;92.85;76636.53;5097067;28;20093;-83
2023/03/05 09:20:49;;;;;;;11.38;2.85;;;;;;;-148.88;92.77;76595.88;5079404;28;20470;-84
2023/03/05 09:23:14;;;;;;;11.20;3.05;;;;;;;-148.88;93.92;76601.97;5098443;28;20099;-84
2023/03/05 09:25:40;;;;;;;4.78;2.50;;;;;;;-148.88;95.28;76658.88;5081218;28;20021;-85
2023/03/05 09:28:06;;;;;;;11.35;2.63;;;;;;;-148.88;93.73;76634.50;5083474;28;20016;-83
2023/03/05 09:30:33;;;;;;;6.85;2.88;;;;;;;-148.88;93.13;76650.75;5084615;28;20065;-84
2023/03/05 09:32:59;;;;;;;4.15;1.98;;;;;;;-148.88;94.77;76675.13;5100957;28;20020;-81
2023/03/05 09:35:24;;;;;;;6.35;2.60;;;;;;;-148.88;93.58;76681.22;5099197;28;20092;-84
2023/03/05 09:37:51;;;;;;;4.15;2.20;;;;;;;-148.88;93.98;76675.13;5100001;28;20107;-85
2023/03/05 09:40:18;;;;;;;4.53;2.13;;;;;;;-148.88;93.77;76660.91;5081316;28;20436;-84
2023/03/05 09:43:13;;;;;;;3.88;1.70;;;;;;;-148.88;95.63;76675.13;5081554;28;20331;-84
2023/03/05 09:46:08;;;;;;;5.03;2.15;;;;;;;-148.88;97.13;76689.34;5023803;28;20034;-86
2023/03/05 09:48:52;;;;;;;6.70;2.00;;;;;;;-148.88;96.04;76667.00;5077237;28;20029;-83
2023/03/05 09:51:28;;;;;;;2.88;1.60;;;;;;;-148.88;97.59;76727.94;5060754;28;20045;-83
2023/03/05 09:54:16;;;;;;;6.43;2.35;;;;;;;-148.88;98.63;76691.38;5080180;28;20016;-85
2023/03/05 09:56:49;;;;;;;4.85;1.73;;;;;;;-148.88;99.59;76729.97;5080950;28;20024;-84
2023/03/05 09:59:38;;;;;;;6.28;2.15;;;;;;;-148.88;99.97;76744.19;5081649;28;20028;-82
2023/03/05 10:02:34;;;;;;;6.13;2.13;;;;;;;-148.88;99.45;76715.75;5097790;28;20028;-86
2023/03/05 10:05:42;;;;;;;6.55;1.90;;;;;;;-148.88;98.59;76658.88;5093039;28;20378;-85
2023/03/05 10:08:20;;;;;;;6.40;2.22;;;;;;;-148.88;96.30;76583.69;5079546;28;20042;-84
2023/03/05 10:11:18;;;;;;;12.02;2.22;;;;;;;-148.88;96.17;76597.91;5081660;28;20028;-84
2023/03/05 10:13:56;;;;;;;6.38;2.35;;;;;;;-148.88;96.02;76589.78;5098276;28;20042;-83
2023/03/05 10:17:00;;;;;;;4.55;1.90;;;;;;;-148.88;93.99;76524.78;5084461;28;20039;-84
2023/03/05 10:20:01;;;;;;;6.32;1.83;;;;;;;-148.88;93.33;76484.16;5083039;28;20118;-85
2023/03/05 10:23:28;;;;;;;4.05;1.98;;;;;;;-148.88;89.30;76386.63;5081492;28;20028;-84
2023/03/05 10:29:24;;;;;;;4.97;2.28;;;;;;;-148.88;85.07;76384.59;5095989;28;19915;-84
2023/03/05 10:32:17;;;;;;;5.28;1.95;;;;;;;-148.88;85.35;76378.50;5081096;28;20474;-85
2023/03/05 10:35:23;;;;;;;3.30;1.45;;;;;;;-148.88;86.08;76561.34;5080798;28;20048;-84
2023/03/05 10:38:33;;;;;;;;;;;;;;;;;;;;;
2023/03/05 10:41:47;;;;;;;5.28;1.60;;;;;;;-148.88;83.79;76520.72;5078748;28;20112;-84
2023/03/05 10:44:18;;;;;;;6.05;1.70;;;;;;;-148.88;83.77;76494.31;5060496;28;20024;-84
2023/03/05 10:46:45;;;;;;;7.15;1.80;;;;;;;-148.88;84.95;76480.09;5077986;28;20031;-83
2023/03/05 10:49:24;;;;;;;3.70;1.63;;;;;;;-148.88;81.81;76536.97;5078107;28;20088;-84
2023/03/05 10:51:58;;;;;;;3.38;1.77;;;;;;;-148.88;81.33;76567.44;5061096;28;20095;-84
2023/03/05 10:54:28;;;;;;;7.05;1.40;;;;;;;-148.88;80.93;76559.31;5081728;28;20095;-84
2023/03/05 10:57:15;;;;;;;4.45;1.67;;;;;;;-148.88;81.00;76569.47;5083271;28;20070;-84
2023/03/05 11:00:17;;;;;;;2.97;1.40;;;;;;;-148.88;81.01;76545.09;5070598;28;20024;-82
2023/03/05 11:03:11;;;;;;;5.10;2.35;;;;;;;-148.88;82.77;76571.50;5076541;28;20054;-84
2023/03/05 11:05:44;;;;;;;3.80;1.80;;;;;;;-148.88;82.45;76547.13;5088171;28;20024;-85
2023/03/05 11:08:28;;;;;;;12.48;4.85;;;;;;;-148.88;82.70;76451.66;5082760;28;20099;-85
2023/03/05 11:11:04;;;;;;;;;;;;;;;-148.88;78.97;76447.59;5065933;28;20474;-84
2023/03/05 11:13:32;;;;;;;4.57;2.15;;;;;;;-148.88;79.31;76419.16;5062172;28;19965;-86
2023/03/05 11:16:01;;;;;;;5.22;2.42;;;;;;;-148.88;73.24;76350.06;5079623;28;20095;-85
2023/03/05 11:18:36;;;;;;;3.83;1.42;;;;;;;-148.88;70.80;76281.00;5077661;28;20029;-86
2023/03/05 11:21:29;;;;;;;2.63;1.23;;;;;;;-148.88;71.97;76287.09;5060992;28;20020;-86
2023/03/05 11:24:20;;;;;;;5.57;1.55;;;;;;;-148.88;70.54;76339.91;5062365;28;20052;-85
2023/03/05 11:27:41;;;;;;;2.35;1.33;;;;;;;-148.88;69.61;76309.44;5079605;28;20025;-85
2023/03/05 11:30:41;;;;;;;2.40;1.15;;;;;;;-148.88;64.38;76325.69;5031500;28;20032;-84